createdAt,value
2016-08-01T00:00:05.805Z,0
2016-08-01T00:01:05.799Z,0
2016-08-01T00:02:05.828Z,0
2016-08-01T00:03:05.753Z,0
2016-08-01T00:04:05.764Z,0
2016-08-01T00:05:05.761Z,0
2016-08-01T00:06:05.762Z,0
2016-08-01T00:07:05.744Z,0
2016-08-01T00:08:05.767Z,0
2016-08-01T00:09:05.719Z,0
2016-08-01T00:10:05.703Z,0
2016-08-01T00:11:05.682Z,0
2016-08-01T00:12:05.702Z,0
2016-08-01T00:13:05.672Z,0
2016-08-01T00:14:05.837Z,0
2016-08-01T00:15:05.662Z,0
2016-08-01T00:16:05.632Z,0
2016-08-01T00:17:05.631Z,0
2016-08-01T00:18:05.649Z,0
2016-08-01T00:19:05.592Z,0
2016-08-01T00:20:05.607Z,0
2016-08-01T00:21:05.595Z,0
2016-08-01T00:22:05.567Z,0
2016-08-01T00:23:05.584Z,0
2016-08-01T00:24:05.563Z,0
2016-08-01T00:25:05.593Z,0
2016-08-01T00:26:05.529Z,0
2016-08-01T00:27:05.526Z,0
2016-08-01T00:28:05.527Z,0
2016-08-01T00:29:05.532Z,0
2016-08-01T00:30:05.490Z,0
2016-08-01T00:31:05.476Z,0
2016-08-01T00:32:05.512Z,0
2016-08-01T00:33:05.477Z,0
2016-08-01T00:34:05.465Z,0
2016-08-01T00:35:05.461Z,0
2016-08-01T00:36:05.434Z,0
2016-08-01T00:37:05.441Z,0
2016-08-01T00:38:05.406Z,0
2016-08-01T00:39:05.424Z,0
2016-08-01T00:40:05.379Z,0
2016-08-01T00:41:05.413Z,0
2016-08-01T00:42:05.369Z,0
2016-08-01T00:43:05.391Z,0
2016-08-01T00:44:05.337Z,0
2016-08-01T00:45:05.344Z,0
2016-08-01T00:46:05.335Z,0
2016-08-01T00:47:05.347Z,0
2016-08-01T00:48:05.317Z,0
2016-08-01T00:49:05.298Z,0
2016-08-01T00:50:05.308Z,0
2016-08-01T00:51:05.285Z,0
2016-08-01T00:52:05.284Z,0
2016-08-01T00:53:05.260Z,0
2016-08-01T00:54:05.268Z,0
2016-08-01T00:55:05.234Z,0
2016-08-01T00:56:05.237Z,0
2016-08-01T00:57:05.237Z,0
2016-08-01T00:58:05.199Z,0
2016-08-01T00:59:05.216Z,0
2016-08-01T01:00:05.177Z,0
2016-08-01T01:01:05.199Z,0
2016-08-01T01:02:05.175Z,0
2016-08-01T01:03:05.181Z,0
2016-08-01T01:04:05.158Z,0
2016-08-01T01:05:05.124Z,0
2016-08-01T01:06:05.116Z,0
2016-08-01T01:07:05.131Z,0
2016-08-01T01:08:05.107Z,0
2016-08-01T01:09:05.136Z,0
2016-08-01T01:10:05.101Z,0
2016-08-01T01:11:05.105Z,0
2016-08-01T01:12:05.085Z,0
2016-08-01T01:13:05.101Z,0
2016-08-01T01:14:05.252Z,0
2016-08-01T01:15:05.033Z,0
2016-08-01T01:16:05.024Z,0
2016-08-01T01:17:05.019Z,0
2016-08-01T01:18:05.040Z,0
2016-08-01T01:19:05.022Z,0
2016-08-01T01:20:04.994Z,0
2016-08-01T01:21:04.987Z,0
2016-08-01T01:22:05.000Z,0
2016-08-01T01:23:04.977Z,0
2016-08-01T01:24:04.956Z,0
2016-08-01T01:25:04.953Z,0
2016-08-01T01:26:04.936Z,0
2016-08-01T01:27:04.912Z,0
2016-08-01T01:28:04.911Z,0
2016-08-01T01:29:04.924Z,0
2016-08-01T01:30:04.905Z,0
2016-08-01T01:31:04.864Z,0
2016-08-01T01:32:04.883Z,0
2016-08-01T01:33:04.865Z,0
2016-08-01T01:34:04.861Z,0
2016-08-01T01:35:04.843Z,0
2016-08-01T01:36:04.842Z,0
2016-08-01T01:37:04.789Z,0
2016-08-01T01:38:04.847Z,0
2016-08-01T01:39:04.791Z,0
2016-08-01T01:40:04.796Z,0
2016-08-01T01:41:04.788Z,0
2016-08-01T01:42:04.765Z,0
2016-08-01T01:43:04.785Z,0
2016-08-01T01:44:04.764Z,0
2016-08-01T01:45:04.739Z,0
2016-08-01T01:46:04.726Z,0
2016-08-01T01:47:05.407Z,0
2016-08-01T01:48:04.702Z,0
2016-08-01T01:49:04.708Z,0
2016-08-01T01:50:04.704Z,0
2016-08-01T01:51:04.692Z,0
2016-08-01T01:52:04.668Z,0
2016-08-01T01:53:04.641Z,0
2016-08-01T01:54:04.639Z,0
2016-08-01T01:55:04.659Z,0
2016-08-01T01:56:04.625Z,0
2016-08-01T01:57:04.646Z,0
2016-08-01T01:58:04.593Z,0
2016-08-01T01:59:04.611Z,0
2016-08-01T02:00:04.602Z,0
2016-08-01T02:01:04.580Z,0
2016-08-01T02:02:04.560Z,0
2016-08-01T02:03:04.535Z,0
2016-08-01T02:04:04.554Z,0
2016-08-01T02:05:04.549Z,0
2016-08-01T02:06:04.525Z,0
2016-08-01T02:07:04.490Z,0
2016-08-01T02:08:04.509Z,0
2016-08-01T02:09:04.509Z,0
2016-08-01T02:10:04.482Z,0
2016-08-01T02:11:04.481Z,0
2016-08-01T02:12:04.443Z,0
2016-08-01T02:13:04.456Z,0
2016-08-01T02:14:04.450Z,0
2016-08-01T02:15:04.454Z,0
2016-08-01T02:16:04.415Z,0
2016-08-01T02:17:04.407Z,0
2016-08-01T02:18:04.367Z,0
2016-08-01T02:19:04.374Z,0
2016-08-01T02:20:04.378Z,0
2016-08-01T02:21:04.359Z,0
2016-08-01T02:22:04.343Z,0
2016-08-01T02:23:04.364Z,0
2016-08-01T02:24:04.365Z,0
2016-08-01T02:25:04.332Z,0
2016-08-01T02:26:04.317Z,0
2016-08-01T02:27:04.291Z,0
2016-08-01T02:28:04.308Z,0
2016-08-01T02:29:04.273Z,0
2016-08-01T02:30:04.281Z,0
2016-08-01T02:31:04.254Z,0
2016-08-01T02:32:04.264Z,0
2016-08-01T02:33:04.265Z,0
2016-08-01T02:34:04.283Z,0
2016-08-01T02:35:04.242Z,0
2016-08-01T02:36:04.238Z,0
2016-08-01T02:37:04.192Z,0
2016-08-01T02:38:04.187Z,0
2016-08-01T02:39:04.186Z,0
2016-08-01T02:40:04.204Z,0
2016-08-01T02:41:04.170Z,0
2016-08-01T02:42:04.157Z,0
2016-08-01T02:43:04.137Z,0
2016-08-01T02:44:04.137Z,0
2016-08-01T02:45:04.150Z,0
2016-08-01T02:46:04.120Z,0
2016-08-01T02:47:04.136Z,0
2016-08-01T02:48:04.107Z,0
2016-08-01T02:50:04.062Z,0
2016-08-01T02:51:04.801Z,0
2016-08-01T02:52:04.069Z,0
2016-08-01T02:53:04.057Z,0
2016-08-01T02:54:04.044Z,0
2016-08-01T02:55:04.041Z,0
2016-08-01T02:56:04.022Z,0
2016-08-01T02:57:04.710Z,0
2016-08-01T02:58:04.017Z,0
2016-08-01T02:59:03.988Z,0
2016-08-01T03:00:03.968Z,0
2016-08-01T03:01:03.985Z,0
2016-08-01T03:02:03.972Z,0
2016-08-01T03:03:03.970Z,0
2016-08-01T03:05:04.648Z,0
2016-08-01T03:06:03.911Z,0
2016-08-01T03:07:03.928Z,0
2016-08-01T03:08:03.895Z,0
2016-08-01T03:09:03.893Z,0
2016-08-01T03:10:03.897Z,0
2016-08-01T03:11:03.889Z,0
2016-08-01T03:12:03.897Z,0
2016-08-01T03:13:03.903Z,0
2016-08-01T03:14:03.850Z,0
2016-08-01T03:15:03.907Z,0
2016-08-01T03:16:03.822Z,0
2016-08-01T03:17:03.850Z,0
2016-08-01T03:18:03.829Z,0
2016-08-01T03:19:03.824Z,0
2016-08-01T03:20:03.795Z,0
2016-08-01T03:21:03.797Z,0
2016-08-01T03:22:03.803Z,0
2016-08-01T03:23:03.766Z,0
2016-08-01T03:24:03.763Z,0
2016-08-01T03:25:03.770Z,0
2016-08-01T03:26:03.747Z,0
2016-08-01T03:27:03.742Z,0
2016-08-01T03:28:03.757Z,0
2016-08-01T03:29:03.701Z,0
2016-08-01T03:30:03.721Z,0
2016-08-01T03:31:03.681Z,0
2016-08-01T03:32:03.725Z,0
2016-08-01T03:33:03.693Z,0
2016-08-01T03:34:03.679Z,0
2016-08-01T03:35:03.637Z,0
2016-08-01T03:36:03.670Z,0
2016-08-01T03:37:03.663Z,0
2016-08-01T03:38:03.632Z,0
2016-08-01T03:39:03.616Z,0
2016-08-01T03:40:03.633Z,0
2016-08-01T03:41:03.638Z,0
2016-08-01T03:42:03.587Z,0
2016-08-01T03:43:03.590Z,0
2016-08-01T03:44:03.595Z,0
2016-08-01T03:45:03.559Z,0
2016-08-01T03:46:03.597Z,0
2016-08-01T03:47:03.563Z,0
2016-08-01T03:48:03.550Z,0
2016-08-01T03:49:03.531Z,0
2016-08-01T03:50:03.509Z,0
2016-08-01T03:51:03.524Z,0
2016-08-01T03:52:03.512Z,0
2016-08-01T03:53:03.482Z,0
2016-08-01T03:54:03.501Z,0
2016-08-01T03:55:03.469Z,0
2016-08-01T03:56:03.441Z,5
2016-08-01T03:57:04.144Z,5
2016-08-01T03:58:03.469Z,5
2016-08-01T03:59:03.453Z,10
2016-08-01T04:00:03.443Z,10
2016-08-01T04:01:03.438Z,15
2016-08-01T04:02:03.381Z,15
2016-08-01T04:03:03.395Z,15
2016-08-01T04:04:03.396Z,20
2016-08-01T04:05:03.389Z,20
2016-08-01T04:06:03.369Z,20
2016-08-01T04:07:03.344Z,20
2016-08-01T04:08:03.355Z,20
2016-08-01T04:09:03.336Z,20
2016-08-01T04:10:03.327Z,25
2016-08-01T04:11:03.302Z,25
2016-08-01T04:12:03.305Z,20
2016-08-01T04:13:03.305Z,20
2016-08-01T04:14:03.284Z,20
2016-08-01T04:15:03.282Z,25
2016-08-01T04:16:03.270Z,25
2016-08-01T04:17:03.246Z,30
2016-08-01T04:18:03.282Z,30
2016-08-01T04:19:03.243Z,35
2016-08-01T04:20:03.234Z,35
2016-08-01T04:21:03.217Z,35
2016-08-01T04:22:03.192Z,35
2016-08-01T04:23:03.225Z,35
2016-08-01T04:24:03.191Z,35
2016-08-01T04:25:03.171Z,40
2016-08-01T04:26:03.188Z,40
2016-08-01T04:27:03.185Z,45
2016-08-01T04:28:03.156Z,40
2016-08-01T04:29:03.143Z,40
2016-08-01T04:30:03.147Z,40
2016-08-01T04:31:03.140Z,45
2016-08-01T04:32:03.837Z,50
2016-08-01T04:33:03.095Z,55
2016-08-01T04:34:03.106Z,55
2016-08-01T04:35:03.075Z,55
2016-08-01T04:36:03.085Z,55
2016-08-01T04:37:03.077Z,60
2016-08-01T04:38:03.055Z,70
2016-08-01T04:39:03.039Z,75
2016-08-01T04:40:03.050Z,85
2016-08-01T04:41:03.005Z,90
2016-08-01T04:42:03.046Z,100
2016-08-01T04:43:03.013Z,100
2016-08-01T04:44:03.010Z,100
2016-08-01T04:45:03.005Z,100
2016-08-01T04:46:02.992Z,100
2016-08-01T04:47:03.007Z,95
2016-08-01T04:48:02.953Z,80
2016-08-01T04:49:02.971Z,75
2016-08-01T04:50:02.926Z,70
2016-08-01T04:51:02.956Z,65
2016-08-01T04:52:02.936Z,70
2016-08-01T04:53:02.916Z,80
2016-08-01T04:54:03.602Z,80
2016-08-01T04:55:02.883Z,80
2016-08-01T04:56:02.861Z,90
2016-08-01T04:57:02.883Z,95
2016-08-01T04:58:02.850Z,110
2016-08-01T04:59:02.856Z,110
2016-08-01T05:00:02.843Z,115
2016-08-01T05:01:02.811Z,115
2016-08-01T05:02:02.814Z,115
2016-08-01T05:03:02.797Z,120
2016-08-01T05:04:02.810Z,130
2016-08-01T05:05:02.807Z,140
2016-08-01T05:06:02.801Z,140
2016-08-01T05:07:02.783Z,155
2016-08-01T05:08:02.788Z,165
2016-08-01T05:09:02.757Z,170
2016-08-01T05:10:02.742Z,210
2016-08-01T05:11:02.770Z,250
2016-08-01T05:12:02.746Z,285
2016-08-01T05:13:02.717Z,290
2016-08-01T05:14:02.680Z,285
2016-08-01T05:15:02.806Z,275
2016-08-01T05:16:02.677Z,290
2016-08-01T05:17:02.704Z,330
2016-08-01T05:18:02.671Z,360
2016-08-01T05:19:02.641Z,340
2016-08-01T05:20:02.647Z,295
2016-08-01T05:21:02.664Z,275
2016-08-01T05:22:02.655Z,270
2016-08-01T05:23:02.634Z,285
2016-08-01T05:24:02.611Z,330
2016-08-01T05:25:02.605Z,375
2016-08-01T05:26:02.613Z,385
2016-08-01T05:27:02.591Z,355
2016-08-01T05:28:02.561Z,335
2016-08-01T05:29:02.601Z,330
2016-08-01T05:30:02.561Z,310
2016-08-01T05:31:02.547Z,305
2016-08-01T05:32:02.538Z,310
2016-08-01T05:33:02.541Z,335
2016-08-01T05:34:02.498Z,340
2016-08-01T05:35:02.499Z,355
2016-08-01T05:36:02.510Z,345
2016-08-01T05:37:02.494Z,340
2016-08-01T05:38:02.494Z,340
2016-08-01T05:39:02.462Z,335
2016-08-01T05:40:02.466Z,310
2016-08-01T05:41:02.473Z,280
2016-08-01T05:42:02.466Z,270
2016-08-01T05:43:02.459Z,265
2016-08-01T05:44:02.457Z,285
2016-08-01T05:45:02.404Z,305
2016-08-01T05:46:02.423Z,335
2016-08-01T05:47:02.406Z,360
2016-08-01T05:48:02.389Z,390
2016-08-01T05:49:02.375Z,395
2016-08-01T05:50:02.351Z,370
2016-08-01T05:51:02.364Z,345
2016-08-01T05:52:02.344Z,320
2016-08-01T05:53:02.366Z,285
2016-08-01T05:54:02.339Z,270
2016-08-01T05:55:02.334Z,260
2016-08-01T05:56:02.338Z,255
2016-08-01T05:57:02.303Z,260
2016-08-01T05:58:02.304Z,280
2016-08-01T05:59:02.291Z,295
2016-08-01T06:00:02.255Z,280
2016-08-01T06:01:02.960Z,265
2016-08-01T06:02:02.274Z,265
2016-08-01T06:03:02.248Z,285
2016-08-01T06:04:02.248Z,295
2016-08-01T06:05:02.225Z,315
2016-08-01T06:06:02.232Z,325
2016-08-01T06:07:02.176Z,345
2016-08-01T06:08:02.197Z,345
2016-08-01T06:09:02.176Z,360
2016-08-01T06:10:02.887Z,340
2016-08-01T06:11:02.138Z,310
2016-08-01T06:12:02.161Z,295
2016-08-01T06:13:02.174Z,275
2016-08-01T06:14:02.144Z,270
2016-08-01T06:15:02.130Z,250
2016-08-01T06:16:02.110Z,265
2016-08-01T06:17:02.117Z,265
2016-08-01T06:18:02.097Z,260
2016-08-01T06:19:02.063Z,280
2016-08-01T06:20:02.074Z,295
2016-08-01T06:21:02.051Z,295
2016-08-01T06:22:02.066Z,280
2016-08-01T06:23:02.052Z,270
2016-08-01T06:24:02.052Z,275
2016-08-01T06:25:02.025Z,285
2016-08-01T06:26:02.003Z,300
2016-08-01T06:27:02.008Z,300
2016-08-01T06:28:01.972Z,290
2016-08-01T06:29:01.979Z,295
2016-08-01T06:30:01.973Z,315
2016-08-01T06:31:01.951Z,335
2016-08-01T06:32:01.971Z,355
2016-08-01T06:33:01.961Z,375
2016-08-01T06:34:01.902Z,375
2016-08-01T06:35:01.914Z,365
2016-08-01T06:36:01.864Z,355
2016-08-01T06:37:02.583Z,330
2016-08-01T06:38:01.861Z,300
2016-08-01T06:39:01.883Z,285
2016-08-01T06:40:01.883Z,305
2016-08-01T06:41:01.853Z,320
2016-08-01T06:42:01.827Z,310
2016-08-01T06:43:01.801Z,310
2016-08-01T06:44:01.814Z,325
2016-08-01T06:45:01.805Z,335
2016-08-01T06:46:01.783Z,335
2016-08-01T06:47:01.797Z,360
2016-08-01T06:48:01.779Z,385
2016-08-01T06:49:01.742Z,350
2016-08-01T06:50:01.767Z,375
2016-08-01T06:51:01.745Z,340
2016-08-01T06:52:01.714Z,310
2016-08-01T06:53:01.725Z,325
2016-08-01T06:54:01.729Z,310
2016-08-01T06:55:01.673Z,310
2016-08-01T06:56:01.667Z,315
2016-08-01T06:57:01.666Z,350
2016-08-01T06:58:01.680Z,365
2016-08-01T06:59:01.630Z,355
2016-08-01T07:00:02.360Z,325
2016-08-01T07:01:01.619Z,315
2016-08-01T07:02:01.602Z,305
2016-08-01T07:03:01.611Z,290
2016-08-01T07:04:01.599Z,290
2016-08-01T07:05:02.279Z,315
2016-08-01T07:06:01.567Z,320
2016-08-01T07:07:01.571Z,325
2016-08-01T07:08:01.551Z,345
2016-08-01T07:09:01.551Z,365
2016-08-01T07:10:01.527Z,380
2016-08-01T07:11:01.520Z,420
2016-08-01T07:12:01.516Z,420
2016-08-01T07:13:01.481Z,390
2016-08-01T07:14:01.464Z,370
2016-08-01T07:15:01.471Z,360
2016-08-01T07:16:01.440Z,390
2016-08-01T07:17:01.439Z,415
2016-08-01T07:18:01.446Z,460
2016-08-01T07:19:01.458Z,465
2016-08-01T07:20:01.459Z,450
2016-08-01T07:21:01.430Z,440
2016-08-01T07:22:01.400Z,440
2016-08-01T07:23:01.409Z,445
2016-08-01T07:24:01.383Z,475
2016-08-01T07:25:01.385Z,490
2016-08-01T07:26:01.357Z,515
2016-08-01T07:27:01.351Z,515
2016-08-01T07:28:01.329Z,510
2016-08-01T07:29:01.323Z,540
2016-08-01T07:30:01.327Z,585
2016-08-01T07:31:01.304Z,570
2016-08-01T07:32:01.302Z,580
2016-08-01T07:33:01.251Z,580
2016-08-01T07:41:55.436Z,585
2016-08-01T07:42:10.683Z,585
2016-08-01T07:43:10.675Z,565
2016-08-01T07:44:10.674Z,525
2016-08-01T07:45:10.655Z,535
2016-08-01T07:46:12.485Z,520
2016-08-01T07:47:11.069Z,480
2016-08-01T07:48:10.637Z,500
2016-08-01T07:49:10.620Z,495
2016-08-01T07:50:11.318Z,505
2016-08-01T07:51:10.738Z,520
2016-08-01T07:52:10.589Z,565
2016-08-01T07:53:10.570Z,600
2016-08-01T07:54:10.545Z,620
2016-08-01T07:55:10.592Z,615
2016-08-01T07:56:10.509Z,595
2016-08-01T07:57:10.519Z,635
2016-08-01T07:58:10.511Z,695
2016-08-01T07:59:10.541Z,770
2016-08-01T08:00:10.507Z,755
2016-08-01T08:01:10.475Z,725
2016-08-01T08:02:11.230Z,760
2016-08-01T08:03:10.465Z,765
2016-08-01T08:04:10.456Z,715
2016-08-01T08:05:10.493Z,690
2016-08-01T08:06:11.119Z,660
2016-08-01T08:07:10.421Z,665
2016-08-01T08:08:10.438Z,635
2016-08-01T08:09:10.400Z,610
2016-08-01T08:10:11.118Z,645
2016-08-01T08:11:10.400Z,695
2016-08-01T08:12:10.398Z,695
2016-08-01T08:13:10.366Z,680
2016-08-01T08:14:10.362Z,640
2016-08-01T08:15:11.031Z,605
2016-08-01T08:16:10.324Z,655
2016-08-01T08:17:10.324Z,760
2016-08-01T08:18:10.327Z,800
2016-08-01T08:19:10.283Z,805
2016-08-01T08:20:10.268Z,790
2016-08-01T08:21:10.272Z,845
2016-08-01T08:22:10.240Z,1025
2016-08-01T08:23:10.264Z,905
2016-08-01T08:24:10.247Z,855
2016-08-01T08:25:10.261Z,835
2016-08-01T08:26:10.227Z,850
2016-08-01T08:27:10.236Z,885
2016-08-01T08:28:10.227Z,965
2016-08-01T08:29:10.183Z,1090
2016-08-01T08:30:10.160Z,1035
2016-08-01T08:31:10.151Z,1190
2016-08-01T08:32:10.157Z,1300
2016-08-01T08:33:10.159Z,1315
2016-08-01T08:34:10.137Z,1510
2016-08-01T08:35:10.131Z,1495
2016-08-01T08:36:10.111Z,1435
2016-08-01T08:37:10.080Z,1385
2016-08-01T08:38:10.111Z,1505
2016-08-01T08:39:10.073Z,1620
2016-08-01T08:40:10.076Z,1530
2016-08-01T08:41:10.074Z,1655
2016-08-01T08:42:10.043Z,1790
2016-08-01T08:43:10.061Z,1845
2016-08-01T08:44:10.039Z,1875
2016-08-01T08:45:10.017Z,2225
2016-08-01T08:46:10.690Z,2155
2016-08-01T08:47:09.989Z,2260
2016-08-01T08:48:10.010Z,2480
2016-08-01T08:49:09.982Z,2155
2016-08-01T08:50:09.956Z,1975
2016-08-01T08:51:09.958Z,2315
2016-08-01T08:52:09.927Z,2125
2016-08-01T08:53:09.928Z,2000
2016-08-01T08:54:09.913Z,2225
2016-08-01T08:55:09.911Z,2495
2016-08-01T08:56:09.914Z,2435
2016-08-01T08:57:09.875Z,3040
2016-08-01T08:58:09.878Z,2365
2016-08-01T08:59:09.845Z,2525
2016-08-01T09:00:09.864Z,2360
2016-08-01T09:01:09.854Z,2605
2016-08-01T09:02:09.833Z,2705
2016-08-01T09:03:10.726Z,2375
2016-08-01T09:04:09.803Z,2715
2016-08-01T09:05:09.784Z,3340
2016-08-01T09:06:09.795Z,2760
2016-08-01T09:07:10.499Z,3695
2016-08-01T09:08:09.773Z,3525
2016-08-01T09:09:09.761Z,2915
2016-08-01T09:10:09.746Z,2880
2016-08-01T09:11:09.719Z,2985
2016-08-01T09:12:09.745Z,2735
2016-08-01T09:13:09.735Z,2810
2016-08-01T09:14:09.693Z,3035
2016-08-01T09:15:09.739Z,3315
2016-08-01T09:16:09.694Z,3525
2016-08-01T09:17:09.667Z,4330
2016-08-01T09:18:09.706Z,3175
2016-08-01T09:19:09.690Z,3130
2016-08-01T09:20:09.658Z,3540
2016-08-01T09:21:09.630Z,3095
2016-08-01T09:22:09.640Z,3020
2016-08-01T09:23:09.620Z,3460
2016-08-01T09:24:10.309Z,3415
2016-08-01T09:25:09.601Z,3270
2016-08-01T09:26:09.605Z,3635
2016-08-01T09:27:09.577Z,2600
2016-08-01T09:28:09.593Z,2825
2016-08-01T09:29:09.579Z,2895
2016-08-01T09:30:09.551Z,3240
2016-08-01T09:31:09.565Z,3790
2016-08-01T09:32:09.522Z,4080
2016-08-01T09:33:09.530Z,4270
2016-08-01T09:34:09.505Z,4580
2016-08-01T09:35:09.529Z,5045
2016-08-01T09:36:09.537Z,4795
2016-08-01T09:37:09.510Z,5275
2016-08-01T09:38:09.481Z,3545
2016-08-01T09:39:09.464Z,4245
2016-08-01T09:40:09.464Z,3680
2016-08-01T09:41:09.439Z,3295
2016-08-01T09:42:09.439Z,3415
2016-08-01T09:43:09.641Z,3800
2016-08-01T09:44:09.432Z,4255
2016-08-01T09:45:09.410Z,4410
2016-08-01T09:46:09.395Z,3385
2016-08-01T09:47:09.375Z,4700
2016-08-01T09:48:09.386Z,5610
2016-08-01T09:49:09.388Z,4750
2016-08-01T09:50:09.366Z,4380
2016-08-01T09:51:09.357Z,5850
2016-08-01T09:52:09.372Z,5105
2016-08-01T09:53:09.323Z,4945
2016-08-01T09:54:09.543Z,3680
2016-08-01T09:55:09.523Z,3025
2016-08-01T09:56:09.307Z,3180
2016-08-01T09:57:09.312Z,3070
2016-08-01T09:58:09.321Z,2645
2016-08-01T09:59:09.278Z,2755
2016-08-01T10:00:09.288Z,2400
2016-08-01T10:01:09.277Z,2515
2016-08-01T10:02:09.298Z,2880
2016-08-01T10:03:09.286Z,2745
2016-08-01T10:04:09.256Z,2455
2016-08-01T10:05:09.261Z,2130
2016-08-01T10:06:09.231Z,1985
2016-08-01T10:07:09.400Z,1955
2016-08-01T10:08:09.251Z,1805
2016-08-01T10:09:09.211Z,1535
2016-08-01T10:10:09.182Z,1355
2016-08-01T10:11:09.194Z,1240
2016-08-01T10:12:09.215Z,1135
2016-08-01T10:13:09.175Z,1145
2016-08-01T10:14:09.168Z,1130
2016-08-01T10:15:09.191Z,1020
2016-08-01T10:16:09.170Z,950
2016-08-01T10:17:24.048Z,925
2016-08-01T10:18:09.163Z,955
2016-08-01T10:19:09.135Z,940
2016-08-01T10:20:09.753Z,850
2016-08-01T10:21:09.305Z,880
2016-08-01T10:22:09.111Z,875
2016-08-01T10:23:09.104Z,895
2016-08-01T10:24:09.113Z,950
2016-08-01T10:25:09.070Z,1090
2016-08-01T10:26:09.083Z,1070
2016-08-01T10:27:09.040Z,1230
2016-08-01T10:28:09.072Z,1240
2016-08-01T10:29:09.080Z,1280
2016-08-01T10:30:09.233Z,1270
2016-08-01T10:31:09.245Z,1255
2016-08-01T10:32:09.185Z,1180
2016-08-01T10:33:09.202Z,1055
2016-08-01T10:34:09.195Z,1070
2016-08-01T10:35:09.001Z,1125
2016-08-01T10:36:08.972Z,1240
2016-08-01T10:37:08.960Z,1295
2016-08-01T10:38:08.953Z,1125
2016-08-01T10:39:08.946Z,1075
2016-08-01T10:40:08.942Z,1290
2016-08-01T10:41:08.943Z,1205
2016-08-01T10:42:08.887Z,1290
2016-08-01T10:43:09.605Z,1340
2016-08-01T10:44:09.091Z,1195
2016-08-01T10:45:09.090Z,1040
2016-08-01T10:46:09.106Z,965
2016-08-01T10:47:08.888Z,890
2016-08-01T10:48:08.916Z,820
2016-08-01T10:49:08.831Z,795
2016-08-01T10:50:08.843Z,795
2016-08-01T10:51:08.814Z,815
2016-08-01T10:52:08.823Z,850
2016-08-01T10:53:08.818Z,840
2016-08-01T10:54:08.778Z,890
2016-08-01T10:55:08.762Z,885
2016-08-01T10:56:08.975Z,865
2016-08-01T10:57:10.183Z,930
2016-08-01T10:58:08.763Z,885
2016-08-01T10:59:08.957Z,805
2016-08-01T11:00:08.718Z,805
2016-08-01T11:01:08.756Z,765
2016-08-01T11:02:08.696Z,810
2016-08-01T11:03:08.712Z,925
2016-08-01T11:04:08.690Z,1165
2016-08-01T11:05:08.675Z,1330
2016-08-01T11:06:09.374Z,1255
2016-08-01T11:07:08.656Z,1280
2016-08-01T11:08:08.630Z,1320
2016-08-01T11:09:08.852Z,1440
2016-08-01T11:10:08.610Z,1665
2016-08-01T11:11:08.798Z,1730
2016-08-01T11:12:08.593Z,1645
2016-08-01T11:13:08.615Z,1475
2016-08-01T11:14:08.580Z,1485
2016-08-01T11:15:08.601Z,1465
2016-08-01T11:16:08.575Z,1335
2016-08-01T11:17:08.552Z,1045
2016-08-01T11:18:08.575Z,935
2016-08-01T11:19:08.552Z,880
2016-08-01T11:20:08.514Z,965
2016-08-01T11:21:08.505Z,975
2016-08-01T11:22:08.709Z,855
2016-08-01T11:23:09.914Z,805
2016-08-01T11:24:08.721Z,795
2016-08-01T11:25:08.464Z,795
2016-08-01T11:26:08.504Z,810
2016-08-01T11:27:08.433Z,775
2016-08-01T11:28:08.430Z,755
2016-08-01T11:29:08.452Z,710
2016-08-01T11:30:08.465Z,665
2016-08-01T11:31:08.384Z,645
2016-08-01T11:32:08.393Z,630
2016-08-01T11:33:08.408Z,615
2016-08-01T11:34:08.379Z,635
2016-08-01T11:35:08.566Z,695
2016-08-01T11:36:09.338Z,780
2016-08-01T11:37:08.341Z,785
2016-08-01T11:38:08.363Z,775
2016-08-01T11:39:08.351Z,800
2016-08-01T11:40:08.351Z,840
2016-08-01T11:41:08.324Z,850
2016-08-01T11:42:08.326Z,800
2016-08-01T11:43:08.306Z,810
2016-08-01T11:44:08.303Z,810
2016-08-01T11:45:08.268Z,790
2016-08-01T11:46:08.484Z,760
2016-08-01T11:47:08.269Z,775
2016-08-01T11:48:08.264Z,815
2016-08-01T11:49:08.953Z,850
2016-08-01T11:50:08.229Z,820
2016-08-01T11:51:08.210Z,820
2016-08-01T11:52:08.182Z,830
2016-08-01T11:53:08.182Z,830
2016-08-01T11:54:08.198Z,800
2016-08-01T11:55:08.178Z,800
2016-08-01T11:56:08.184Z,745
2016-08-01T11:57:08.150Z,740
2016-08-01T11:58:08.329Z,720
2016-08-01T11:59:08.325Z,695
2016-08-01T12:00:08.329Z,715
2016-08-01T12:01:08.792Z,760
2016-08-01T12:02:08.108Z,790
2016-08-01T12:03:08.091Z,730
2016-08-01T12:04:08.084Z,730
2016-08-01T12:05:08.042Z,760
2016-08-01T12:06:08.019Z,730
2016-08-01T12:07:08.057Z,700
2016-08-01T12:08:08.067Z,690
2016-08-01T12:09:08.007Z,690
2016-08-01T12:10:08.030Z,740
2016-08-01T12:11:08.195Z,740
2016-08-01T12:12:08.209Z,730
2016-08-01T12:13:08.167Z,755
2016-08-01T12:14:07.955Z,810
2016-08-01T12:15:07.969Z,860
2016-08-01T12:16:08.101Z,970
2016-08-01T12:17:07.955Z,970
2016-08-01T12:18:07.945Z,870
2016-08-01T12:19:08.620Z,780
2016-08-01T12:20:07.931Z,720
2016-08-01T12:21:07.926Z,765
2016-08-01T12:22:07.871Z,795
2016-08-01T12:23:07.862Z,845
2016-08-01T12:24:08.059Z,945
2016-08-01T12:25:08.051Z,990
2016-08-01T12:26:07.841Z,1020
2016-08-01T12:27:07.819Z,1015
2016-08-01T12:28:07.804Z,925
2016-08-01T12:29:07.825Z,880
2016-08-01T12:30:07.815Z,910
2016-08-01T12:31:07.811Z,880
2016-08-01T12:32:07.810Z,875
2016-08-01T12:33:07.754Z,825
2016-08-01T12:34:07.767Z,880
2016-08-01T12:35:07.766Z,950
2016-08-01T12:37:07.732Z,1010
2016-08-01T12:38:07.720Z,1095
2016-08-01T12:39:07.732Z,1095
2016-08-01T12:40:07.701Z,1195
2016-08-01T12:41:07.684Z,1270
2016-08-01T12:42:07.700Z,1420
2016-08-01T12:43:07.652Z,1165
2016-08-01T12:44:07.660Z,1070
2016-08-01T12:45:08.359Z,915
2016-08-01T12:46:07.657Z,930
2016-08-01T12:47:07.615Z,840
2016-08-01T12:48:07.612Z,775
2016-08-01T12:49:07.834Z,665
2016-08-01T12:50:07.591Z,625
2016-08-01T12:51:07.593Z,625
2016-08-01T12:52:07.580Z,660
2016-08-01T12:53:07.577Z,660
2016-08-01T12:54:07.546Z,595
2016-08-01T12:55:07.545Z,610
2016-08-01T12:56:07.544Z,615
2016-08-01T12:57:07.533Z,585
2016-08-01T12:58:07.519Z,575
2016-08-01T12:59:07.498Z,620
2016-08-01T13:00:07.490Z,595
2016-08-01T13:01:07.669Z,580
2016-08-01T13:02:07.669Z,595
2016-08-01T13:03:07.466Z,575
2016-08-01T13:04:07.477Z,600
2016-08-01T13:05:07.409Z,660
2016-08-01T13:06:07.427Z,625
2016-08-01T13:07:07.418Z,540
2016-08-01T13:08:07.419Z,500
2016-08-01T13:09:07.386Z,495
2016-08-01T13:10:07.407Z,505
2016-08-01T13:11:07.379Z,660
2016-08-01T13:12:07.390Z,750
2016-08-01T13:13:07.366Z,740
2016-08-01T13:14:07.560Z,830
2016-08-01T13:15:07.364Z,775
2016-08-01T13:16:07.594Z,655
2016-08-01T13:17:07.352Z,600
2016-08-01T13:18:07.326Z,640
2016-08-01T13:19:07.294Z,635
2016-08-01T13:20:07.311Z,615
2016-08-01T13:21:07.277Z,730
2016-08-01T13:22:07.277Z,780
2016-08-01T13:23:07.263Z,750
2016-08-01T13:24:07.473Z,795
2016-08-01T13:25:07.245Z,795
2016-08-01T13:26:07.194Z,780
2016-08-01T13:27:07.430Z,675
2016-08-01T13:28:07.192Z,620
2016-08-01T13:29:07.215Z,705
2016-08-01T13:30:07.202Z,840
2016-08-01T13:31:07.203Z,790
2016-08-01T13:32:07.159Z,725
2016-08-01T13:33:07.158Z,860
2016-08-01T13:34:07.151Z,935
2016-08-01T13:35:07.162Z,1005
2016-08-01T13:36:07.127Z,990
2016-08-01T13:37:07.136Z,975
2016-08-01T13:38:07.330Z,935
2016-08-01T13:39:07.323Z,795
2016-08-01T13:40:07.085Z,715
2016-08-01T13:41:07.056Z,620
2016-08-01T13:42:07.744Z,585
2016-08-01T13:43:07.044Z,570
2016-08-01T13:44:07.034Z,575
2016-08-01T13:45:07.033Z,560
2016-08-01T13:46:07.034Z,580
2016-08-01T13:47:07.052Z,620
2016-08-01T13:48:07.016Z,585
2016-08-01T13:49:07.879Z,510
2016-08-01T13:50:07.054Z,550
2016-08-01T13:51:06.975Z,515
2016-08-01T13:52:06.962Z,485
2016-08-01T13:53:06.954Z,435
2016-08-01T13:54:06.936Z,490
2016-08-01T13:55:06.948Z,575
2016-08-01T13:56:06.909Z,645
2016-08-01T13:57:06.928Z,675
2016-08-01T13:58:06.924Z,595
2016-08-01T13:59:06.898Z,550
2016-08-01T14:00:06.863Z,510
2016-08-01T14:01:06.868Z,500
2016-08-01T14:02:06.866Z,525
2016-08-01T14:03:06.852Z,545
2016-08-01T14:04:06.854Z,510
2016-08-01T14:05:06.855Z,435
2016-08-01T14:06:06.819Z,400
2016-08-01T14:07:06.811Z,385
2016-08-01T14:08:06.806Z,345